createdAt,value
2023-02-01T00:01:37.876Z,1.73
2023-02-01T00:04:08.032Z,1.35
2023-02-01T00:06:36.833Z,1.17
2023-02-01T00:09:05.954Z,1.30
2023-02-01T00:11:34.814Z,0.80
2023-02-01T00:14:04.058Z,1.40
2023-02-01T00:16:33.371Z,1.52
2023-02-01T00:19:04.356Z,1.25
2023-02-01T00:21:35.175Z,0.50
2023-02-01T00:24:04.336Z,1.20
2023-02-01T00:26:35.397Z,1.08
2023-02-01T00:29:06.791Z,0.70
2023-02-01T00:31:35.899Z,0.90
2023-02-01T00:34:05.039Z,1.17
2023-02-01T00:36:35.911Z,1.13
2023-02-01T00:39:04.908Z,0.88
2023-02-01T00:41:33.755Z,0.90
2023-02-01T00:44:04.748Z,1.27
2023-02-01T00:46:33.824Z,2.00
2023-02-01T00:49:04.094Z,1.00
2023-02-01T00:51:33.258Z,1.30
2023-02-01T00:54:04.411Z,1.20
2023-02-01T00:56:33.685Z,1.20
2023-02-01T00:59:03.360Z,1.10
2023-02-01T01:01:32.221Z,1.58
2023-02-01T01:04:02.480Z,1.65
2023-02-01T01:06:34.277Z,0.90
2023-02-01T01:09:07.747Z,1.35
2023-02-01T01:11:38.551Z,1.38
2023-02-01T01:14:10.322Z,1.17
2023-02-01T01:16:39.628Z,1.13
2023-02-01T01:19:08.850Z,1.00
2023-02-01T01:21:37.817Z,1.20
2023-02-01T01:24:08.281Z,0.88
2023-02-01T01:26:37.098Z,1.08
2023-02-01T01:29:06.377Z,1.23
2023-02-01T01:31:35.386Z,0.95
2023-02-01T01:34:04.381Z,0.90
2023-02-01T01:36:33.438Z,1.17
2023-02-01T01:39:02.348Z,1.23
2023-02-01T01:41:34.076Z,1.38
2023-02-01T01:45:02.196Z,0.88
2023-02-01T01:47:37.852Z,2.17
2023-02-01T01:50:10.458Z,1.13
2023-02-01T01:52:41.893Z,1.05
2023-02-01T01:55:12.278Z,1.05
2023-02-01T01:57:46.004Z,1.20
2023-02-01T02:00:20.893Z,1.30
2023-02-01T02:02:55.280Z,1.48
2023-02-01T02:05:24.370Z,1.70
2023-02-01T02:07:55.676Z,1.35
2023-02-01T02:10:44.884Z,1.48
2023-02-01T02:13:16.940Z,1.13
2023-02-01T02:15:54.559Z,2.00
2023-02-01T02:18:34.054Z,0.95
2023-02-01T02:21:15.581Z,2.08
2023-02-01T02:24:11.969Z,1.55
2023-02-01T02:26:58.995Z,1.13
2023-02-01T02:30:00.979Z,2.03
2023-02-01T02:32:56.387Z,2.25
2023-02-01T02:35:36.253Z,0.85
2023-02-01T02:38:17.926Z,1.65
2023-02-01T02:40:52.608Z,2.17
2023-02-01T02:46:34.514Z,0.43
2023-02-01T02:49:09.909Z,2.15
2023-02-01T02:52:02.776Z,2.08
2023-02-01T02:54:49.689Z,1.70
2023-02-01T02:57:42.197Z,0.90
2023-02-01T03:00:31.689Z,2.80
2023-02-01T03:03:17.904Z,2.13
2023-02-01T03:05:51.580Z,1.33
2023-02-01T03:08:24.156Z,2.33
2023-02-01T03:10:58.824Z,2.30
2023-02-01T03:13:37.207Z,2.42
2023-02-01T03:16:11.431Z,4.47
2023-02-01T03:18:49.280Z,4.85
2023-02-01T03:21:22.128Z,4.05
2023-02-01T03:23:54.721Z,2.03
2023-02-01T03:26:26.297Z,3.33
2023-02-01T03:28:59.938Z,2.55
2023-02-01T03:31:30.822Z,2.63
2023-02-01T03:34:00.285Z,2.63
2023-02-01T03:36:35.878Z,3.38
2023-02-01T03:39:11.856Z,3.05
2023-02-01T03:41:44.945Z,1.25
2023-02-01T03:44:16.772Z,1.20
2023-02-01T03:46:50.915Z,3.70
2023-02-01T03:49:25.067Z,3.05
2023-02-01T03:51:55.236Z,2.43
2023-02-01T03:54:29.001Z,3.35
2023-02-01T03:57:02.147Z,3.80
2023-02-01T03:59:31.223Z,1.25
2023-02-01T04:02:00.209Z,1.45
2023-02-01T04:04:29.567Z,1.23
2023-02-01T04:06:59.071Z,1.98
2023-02-01T04:09:29.363Z,1.38
2023-02-01T04:11:58.223Z,2.75
2023-02-01T04:14:27.258Z,3.63
2023-02-01T04:16:56.247Z,1.27
2023-02-01T04:19:25.226Z,3.25
2023-02-01T04:21:54.175Z,1.95
2023-02-01T04:24:22.924Z,3.80
2023-02-01T04:26:53.205Z,1.27
2023-02-01T04:29:22.084Z,3.45
2023-02-01T04:31:51.602Z,5.93
2023-02-01T04:34:20.690Z,1.92
2023-02-01T04:36:49.535Z,3.28
2023-02-01T04:39:18.351Z,1.30
2023-02-01T04:41:47.295Z,0.98
2023-02-01T04:44:18.936Z,1.05
2023-02-01T04:46:48.932Z,1.42
2023-02-01T04:49:18.026Z,7.80
2023-02-01T04:51:46.826Z,4.78
2023-02-01T04:54:15.795Z,1.98
2023-02-01T04:56:44.673Z,4.85
2023-02-01T04:59:14.197Z,3.30
2023-02-01T05:01:44.415Z,4.07
2023-02-01T05:04:13.235Z,2.58
2023-02-01T05:06:42.082Z,1.73
2023-02-01T05:09:11.100Z,1.00
2023-02-01T05:11:57.721Z,2.95
2023-02-01T05:14:26.511Z,3.42
2023-02-01T05:16:56.707Z,1.73
2023-02-01T05:19:25.595Z,2.75
2023-02-01T05:21:54.431Z,3.58
2023-02-01T05:24:23.490Z,3.17
2023-02-01T05:26:52.461Z,0.80
2023-02-01T05:29:21.578Z,2.78
2023-02-01T05:31:51.031Z,1.80
2023-02-01T05:34:21.265Z,1.30
2023-02-01T05:36:50.184Z,1.52
2023-02-01T05:39:19.025Z,2.63
2023-02-01T05:41:47.890Z,2.45
2023-02-01T05:44:17.475Z,3.85
2023-02-01T05:46:46.271Z,2.85
2023-02-01T05:49:15.100Z,2.90
2023-02-01T05:51:45.277Z,2.72
2023-02-01T05:54:14.231Z,3.33
2023-02-01T05:56:43.082Z,1.60
2023-02-01T05:59:12.582Z,1.25
2023-02-01T06:01:41.402Z,2.17
2023-02-01T06:04:10.328Z,2.38
2023-02-01T06:06:39.221Z,3.38
2023-02-01T06:09:10.051Z,1.73
2023-02-01T06:11:39.311Z,1.42
2023-02-01T06:14:08.991Z,1.42
2023-02-01T06:16:37.855Z,5.70
2023-02-01T06:19:06.893Z,1.15
2023-02-01T06:21:37.544Z,3.28
2023-02-01T06:24:07.254Z,0.93
2023-02-01T06:26:37.522Z,1.45
2023-02-01T06:29:07.612Z,1.15
2023-02-01T06:31:36.553Z,2.42
2023-02-01T06:34:05.443Z,2.08
2023-02-01T06:36:34.439Z,3.05
2023-02-01T06:39:03.725Z,3.20
2023-02-01T06:41:32.672Z,3.15
2023-02-01T06:44:03.744Z,3.17
2023-02-01T06:46:32.602Z,1.52
2023-02-01T06:49:02.584Z,2.17
2023-02-01T06:51:31.407Z,1.25
2023-02-01T06:54:00.281Z,2.92
2023-02-01T06:56:30.193Z,1.33
2023-02-01T06:58:58.991Z,3.08
2023-02-01T07:01:29.183Z,3.08
2023-02-01T07:17:01.115Z,2.40
2023-02-01T07:19:30.173Z,6.38
2023-02-01T07:21:58.978Z,3.75
2023-02-01T07:24:27.813Z,4.07
2023-02-01T07:26:56.698Z,5.65
2023-02-01T07:29:25.569Z,4.65
2023-02-01T07:31:54.649Z,4.35
2023-02-01T07:34:24.838Z,2.90
2023-02-01T07:36:53.851Z,2.13
2023-02-01T07:39:22.676Z,2.75
2023-02-01T07:41:51.494Z,2.80
2023-02-01T07:44:23.725Z,2.85
2023-02-01T07:46:52.860Z,2.95
2023-02-01T07:49:21.757Z,0.95
2023-02-01T07:51:52.053Z,2.30
2023-02-01T07:54:20.858Z,3.13
2023-02-01T07:56:49.746Z,2.42
2023-02-01T07:59:18.671Z,2.38
2023-02-01T08:01:46.518Z,2.10
2023-02-01T08:04:15.859Z,2.55
2023-02-01T08:06:44.811Z,2.70
2023-02-01T08:09:15.853Z,4.30
2023-02-01T08:11:44.845Z,2.42
2023-02-01T08:14:13.721Z,5.93
2023-02-01T08:16:42.604Z,2.13
2023-02-01T08:19:11.445Z,2.95
2023-02-01T08:21:40.417Z,2.45
2023-02-01T08:24:12.024Z,0.98
2023-02-01T08:26:42.531Z,2.65
2023-02-01T08:29:13.536Z,2.33
2023-02-01T08:31:42.952Z,2.00
2023-02-01T08:34:13.183Z,7.80
2023-02-01T08:36:42.132Z,5.65
2023-02-01T08:39:11.632Z,3.67
2023-02-01T08:41:40.973Z,1.75
2023-02-01T08:44:11.325Z,1.35
2023-02-01T08:46:40.179Z,2.53
2023-02-01T08:49:09.057Z,2.60
2023-02-01T08:51:37.897Z,2.85
2023-02-01T08:54:06.849Z,1.50
2023-02-01T08:56:35.734Z,2.25
2023-02-01T08:59:04.675Z,1.80
2023-02-01T09:01:34.984Z,1.95
2023-02-01T09:04:04.406Z,2.65
2023-02-01T09:06:33.505Z,1.58
2023-02-01T09:09:02.453Z,1.83
2023-02-01T09:11:31.418Z,1.10
2023-02-01T09:14:00.304Z,1.60
2023-02-01T09:16:29.974Z,1.90
2023-02-01T09:19:14.828Z,2.88
2023-02-01T09:21:49.054Z,3.60
2023-02-01T09:24:18.144Z,3.42
2023-02-01T09:26:47.170Z,1.45
2023-02-01T09:29:16.084Z,1.83
2023-02-01T09:31:57.488Z,2.60
2023-02-01T09:34:33.197Z,1.90
2023-02-01T09:37:02.106Z,2.45
2023-02-01T09:39:32.242Z,4.15
2023-02-01T09:42:13.113Z,2.58
2023-02-01T09:44:53.539Z,3.97
2023-02-01T09:47:25.212Z,1.77
2023-02-01T09:50:00.603Z,7.97
2023-02-01T09:52:38.517Z,2.30
2023-02-01T09:55:16.199Z,2.00
2023-02-01T09:57:53.188Z,5.50
2023-02-01T10:00:27.974Z,2.55
2023-02-01T10:02:58.242Z,2.08
2023-02-01T10:05:43.682Z,2.33
2023-02-01T10:08:21.718Z,3.53
2023-02-01T10:10:51.918Z,2.53
2023-02-01T10:13:36.080Z,2.40
2023-02-01T10:16:21.057Z,2.60
2023-02-01T10:19:07.308Z,2.80
2023-02-01T10:21:48.636Z,2.20
2023-02-01T10:24:41.713Z,3.00
2023-02-01T10:27:16.315Z,2.50
2023-02-01T10:29:47.511Z,2.75
2023-02-01T10:32:18.958Z,2.05
2023-02-01T10:34:52.520Z,2.15
2023-02-01T10:37:28.693Z,1.75
2023-02-01T10:39:59.750Z,2.30
2023-02-01T10:42:31.353Z,2.47
2023-02-01T10:45:04.213Z,2.20
2023-02-01T10:47:33.141Z,1.77
2023-02-01T10:50:16.669Z,2.95
2023-02-01T10:52:53.230Z,2.22
2023-02-01T10:55:35.098Z,2.22
2023-02-01T10:58:06.376Z,1.85
2023-02-01T11:00:47.915Z,2.25
2023-02-01T11:03:39.018Z,1.88
2023-02-01T11:06:19.473Z,2.60
2023-02-01T11:08:52.090Z,1.20
2023-02-01T11:11:21.983Z,2.33
2023-02-01T11:13:56.794Z,2.17
2023-02-01T11:16:34.903Z,2.17
2023-02-01T11:19:04.387Z,1.58
2023-02-01T11:21:33.872Z,1.80
2023-02-01T11:24:06.625Z,2.40
2023-02-01T11:26:35.672Z,0.93
2023-02-01T11:29:10.658Z,1.77
2023-02-01T11:34:13.602Z,1.73
2023-02-01T11:36:43.407Z,1.80
2023-02-01T11:39:26.802Z,0.93
2023-02-01T11:42:14.006Z,1.40
2023-02-01T11:44:44.985Z,0.98
2023-02-01T11:47:26.651Z,0.80
2023-02-01T11:49:57.199Z,1.23
2023-02-01T11:52:41.781Z,1.30
2023-02-01T11:55:44.270Z,2.22
2023-02-01T11:58:29.181Z,1.40
2023-02-01T12:01:08.203Z,1.85
2023-02-01T12:04:03.697Z,0.90
2023-02-01T12:06:46.094Z,1.63
2023-02-01T12:09:36.198Z,1.35
2023-02-01T12:12:15.430Z,0.82
2023-02-01T12:15:04.224Z,4.22
2023-02-01T12:17:58.590Z,1.27
2023-02-01T12:20:47.190Z,1.70
2023-02-01T12:23:31.378Z,1.42
2023-02-01T12:26:12.517Z,1.50
2023-02-01T12:29:17.049Z,1.38
2023-02-01T12:31:59.594Z,1.27
2023-02-01T12:34:54.720Z,1.10
2023-02-01T12:37:37.486Z,1.85
2023-02-01T12:40:23.826Z,0.90
2023-02-01T12:43:02.683Z,2.53
2023-02-01T12:45:36.779Z,2.15
2023-02-01T12:48:25.329Z,0.90
2023-02-01T12:51:00.314Z,1.83
2023-02-01T12:53:38.750Z,1.00
2023-02-01T12:56:14.467Z,1.98
2023-02-01T12:58:46.819Z,1.75
2023-02-01T13:01:22.579Z,6.40
2023-02-01T13:04:17.199Z,1.17
2023-02-01T13:06:53.937Z,4.57
2023-02-01T13:09:28.774Z,3.85
2023-02-01T13:12:14.814Z,5.18
2023-02-01T13:14:48.697Z,2.10
2023-02-01T13:17:22.580Z,1.83
2023-02-01T13:19:58.378Z,2.03
2023-02-01T13:22:32.439Z,2.55
2023-02-01T13:25:04.315Z,2.05
2023-02-01T13:27:34.902Z,1.20
2023-02-01T13:30:08.387Z,2.22
2023-02-01T13:33:54.260Z,3.53
2023-02-01T13:36:12.968Z,1.50
2023-02-01T13:39:19.417Z,1.20
2023-02-01T13:41:56.532Z,1.58
2023-02-01T13:44:33.073Z,1.50
2023-02-01T13:47:05.108Z,1.58
2023-02-01T13:49:40.623Z,1.52
2023-02-01T13:52:27.721Z,0.95
2023-02-01T13:55:27.048Z,6.65
2023-02-01T13:58:05.211Z,2.10
2023-02-01T14:00:37.234Z,3.38
2023-02-01T14:03:16.984Z,1.85
2023-02-01T14:06:34.987Z,1.75
2023-02-01T14:09:34.370Z,1.20
2023-02-01T14:12:36.996Z,2.05
2023-02-01T14:15:25.800Z,1.33
2023-02-01T14:17:55.598Z,1.38
2023-02-01T14:20:49.938Z,1.65
2023-02-01T14:23:25.220Z,1.85
2023-02-01T14:26:14.395Z,1.40
2023-02-01T14:28:48.432Z,1.55
2023-02-01T14:31:26.510Z,1.02
2023-02-01T14:34:00.323Z,2.17
2023-02-01T14:36:44.117Z,1.60
2023-02-01T14:39:26.542Z,1.92
2023-02-01T14:42:02.628Z,1.58
2023-02-01T14:44:34.994Z,2.53
2023-02-01T14:47:33.124Z,2.53
2023-02-01T14:50:43.779Z,1.35
2023-02-01T14:53:21.513Z,0.98
2023-02-01T14:55:53.212Z,2.80
2023-02-01T14:58:33.971Z,1.25
2023-02-01T15:01:05.777Z,1.80
2023-02-01T15:03:47.865Z,1.17
2023-02-01T15:06:26.182Z,13.82
2023-02-01T15:08:58.696Z,8.00
2023-02-01T15:11:27.933Z,10.57
2023-02-01T15:13:58.345Z,8.50
2023-02-01T15:16:28.755Z,1.63
2023-02-01T15:19:11.828Z,2.33
2023-02-01T15:21:51.434Z,1.38
2023-02-01T15:24:25.412Z,2.03
2023-02-01T15:26:55.842Z,3.92
2023-02-01T15:29:28.819Z,4.88
2023-02-01T15:31:57.712Z,2.42
2023-02-01T15:34:47.348Z,1.73
2023-02-01T15:37:17.604Z,1.42
2023-02-01T15:40:19.885Z,2.05
2023-02-01T15:42:54.878Z,2.72
2023-02-01T15:47:58.001Z,4.10
2023-02-01T15:50:28.401Z,4.63
2023-02-01T15:52:57.663Z,4.80
2023-02-01T15:55:38.417Z,3.97
2023-02-01T15:58:08.584Z,3.30
2023-02-01T16:00:47.529Z,4.10
2023-02-01T16:03:36.564Z,4.05
2023-02-01T16:06:07.983Z,4.30
2023-02-01T16:08:38.152Z,1.98
2023-02-01T16:11:31.548Z,2.40
2023-02-01T16:14:00.844Z,1.88
2023-02-01T16:16:31.926Z,7.05
2023-02-01T16:19:00.898Z,3.35
2023-02-01T16:21:29.705Z,3.05
2023-02-01T16:23:58.553Z,2.33
2023-02-01T16:26:27.399Z,2.17
2023-02-01T16:28:56.260Z,1.30
2023-02-01T16:31:30.044Z,0.80
2023-02-01T16:34:00.524Z,1.80
2023-02-01T16:36:30.016Z,2.88
2023-02-01T16:38:59.040Z,2.25
2023-02-01T16:41:29.983Z,1.13
2023-02-01T16:43:58.985Z,2.28
2023-02-01T16:46:31.600Z,1.27
2023-02-01T16:49:03.300Z,1.17
2023-02-01T16:51:34.511Z,1.80
2023-02-01T16:54:04.099Z,1.70
2023-02-01T16:56:34.930Z,1.95
2023-02-01T16:59:04.416Z,2.67
2023-02-01T17:01:33.405Z,1.38
2023-02-01T17:04:03.918Z,1.80
2023-02-01T17:06:33.933Z,2.20
2023-02-01T17:09:04.174Z,1.30
2023-02-01T17:11:33.648Z,1.52
2023-02-01T17:14:11.902Z,1.55
2023-02-01T17:16:41.541Z,5.65
2023-02-01T17:19:16.734Z,3.60
2023-02-01T17:21:47.690Z,3.53
2023-02-01T17:24:17.559Z,4.30
2023-02-01T17:26:47.519Z,3.55
2023-02-01T17:29:16.379Z,4.00
2023-02-01T17:31:47.318Z,3.60
2023-02-01T17:34:19.183Z,3.80
2023-02-01T17:36:49.067Z,3.70
2023-02-01T17:39:32.190Z,4.75
2023-02-01T17:42:01.592Z,9.07
2023-02-01T17:44:30.461Z,7.80
2023-02-01T17:46:59.981Z,8.63
2023-02-01T17:49:30.974Z,8.07
2023-02-01T17:51:59.928Z,7.72
2023-02-01T17:54:29.543Z,13.40
2023-02-01T17:57:00.330Z,18.95
2023-02-01T17:59:29.242Z,31.58
2023-02-01T18:02:01.061Z,31.38
2023-02-01T18:04:31.544Z,30.92
2023-02-01T18:07:00.545Z,30.52
2023-02-01T18:09:29.643Z,29.02
2023-02-01T18:11:59.641Z,31.02
2023-02-01T18:14:28.504Z,31.73
2023-02-01T18:16:57.400Z,31.27
2023-02-01T18:19:27.681Z,25.58
2023-02-01T18:21:58.108Z,20.55
2023-02-01T18:24:28.035Z,31.80
2023-02-01T18:26:57.071Z,35.13
2023-02-01T18:29:26.009Z,29.85
2023-02-01T18:31:55.115Z,24.17
2023-02-01T18:34:25.461Z,20.15
2023-02-01T18:36:54.460Z,19.95
2023-02-01T18:39:24.840Z,18.38
2023-02-01T18:41:54.150Z,11.15
2023-02-01T18:44:24.274Z,9.45
2023-02-01T18:46:53.115Z,15.65
2023-02-01T18:49:21.930Z,22.80
2023-02-01T18:51:52.247Z,19.17
2023-02-01T18:54:21.140Z,14.38
2023-02-01T18:56:51.472Z,18.60
2023-02-01T18:59:20.354Z,14.27
2023-02-01T19:01:49.339Z,15.15
2023-02-01T19:04:23.706Z,14.48
2023-02-01T19:06:55.088Z,18.30
2023-02-01T19:09:23.938Z,18.67
2023-02-01T19:11:54.184Z,17.88
2023-02-01T19:14:23.244Z,17.23
2023-02-01T19:16:52.211Z,17.35
2023-02-01T19:19:21.045Z,19.05
2023-02-01T19:21:50.333Z,25.50
2023-02-01T19:24:19.394Z,29.33
2023-02-01T19:26:50.227Z,29.50
2023-02-01T19:29:20.756Z,27.52
2023-02-01T19:31:49.967Z,30.75
2023-02-01T19:34:18.820Z,30.10
2023-02-01T19:36:48.249Z,24.90
2023-02-01T19:39:17.149Z,25.92
2023-02-01T19:41:46.232Z,24.45
2023-02-01T19:44:15.143Z,28.23
2023-02-01T19:46:45.513Z,33.38
2023-02-01T19:49:14.470Z,31.67
2023-02-01T19:51:45.116Z,34.17
2023-02-01T19:54:13.949Z,35.35
2023-02-01T19:56:43.764Z,26.15
2023-02-01T19:59:13.585Z,25.30
2023-02-01T20:01:44.443Z,25.98
2023-02-01T20:04:16.461Z,25.95
2023-02-01T20:06:49.043Z,29.95
2023-02-01T20:09:19.855Z,31.83
2023-02-01T20:11:49.329Z,28.92
2023-02-01T20:14:18.579Z,33.67
2023-02-01T20:16:47.462Z,28.92
2023-02-01T20:19:17.880Z,30.98
2023-02-01T20:21:46.813Z,37.83
2023-02-01T20:24:18.049Z,34.47
2023-02-01T20:26:49.062Z,31.35
2023-02-01T20:29:18.942Z,29.92
2023-02-01T20:31:47.981Z,25.20
2023-02-01T20:34:18.464Z,21.90
2023-02-01T20:36:47.294Z,22.30
2023-02-01T20:39:16.256Z,21.30
2023-02-01T20:41:45.134Z,21.88
2023-02-01T20:44:14.087Z,27.25
2023-02-01T20:46:42.971Z,24.52
2023-02-01T20:49:11.866Z,21.63
2023-02-01T20:51:42.047Z,23.00
2023-02-01T20:54:10.831Z,26.42
2023-02-01T20:56:40.488Z,62.65
2023-02-01T20:59:12.352Z,26.73
2023-02-01T21:01:52.909Z,18.67
2023-02-01T21:04:25.216Z,21.88
2023-02-01T21:06:56.003Z,31.88
2023-02-01T21:09:25.188Z,22.00
2023-02-01T21:11:54.999Z,29.13
2023-02-01T21:14:24.413Z,20.30
2023-02-01T21:16:53.299Z,12.95
2023-02-01T21:19:22.446Z,11.73
2023-02-01T21:21:51.254Z,19.90
2023-02-01T21:24:22.008Z,21.52
2023-02-01T21:26:50.954Z,21.45
2023-02-01T21:29:19.860Z,24.92
2023-02-01T21:31:48.741Z,19.05
2023-02-01T21:34:17.608Z,15.40
2023-02-01T21:36:46.386Z,13.52
2023-02-01T21:39:17.125Z,19.20
2023-02-01T21:42:05.099Z,22.58
2023-02-01T21:44:33.970Z,19.70
2023-02-01T21:47:03.562Z,16.38
2023-02-01T21:49:32.628Z,15.07
2023-02-01T21:52:02.107Z,15.20
2023-02-01T21:54:31.063Z,14.10
2023-02-01T21:57:02.111Z,13.32
2023-02-01T21:59:31.005Z,15.60
2023-02-01T22:01:59.892Z,15.45
2023-02-01T22:04:28.754Z,14.95
2023-02-01T22:06:57.699Z,14.57
2023-02-01T22:09:27.582Z,17.17
2023-02-01T22:11:57.201Z,18.80
2023-02-01T22:14:27.490Z,32.88
2023-02-01T22:16:56.437Z,27.38
2023-02-01T22:19:25.291Z,24.42
2023-02-01T22:21:54.184Z,31.48
2023-02-01T22:24:22.990Z,22.75
2023-02-01T22:26:52.084Z,19.92
2023-02-01T22:29:21.059Z,16.33
2023-02-01T22:31:51.866Z,17.63
2023-02-01T22:34:22.153Z,15.60
2023-02-01T22:36:50.992Z,11.73
2023-02-01T22:39:19.776Z,8.50
2023-02-01T22:41:48.578Z,9.27
2023-02-01T22:44:17.812Z,12.20
2023-02-01T22:46:46.833Z,8.82
2023-02-01T22:49:17.260Z,5.28
2023-02-01T22:51:46.330Z,4.88
2023-02-01T22:54:18.967Z,5.78
2023-02-01T22:56:48.443Z,4.55
2023-02-01T22:59:17.792Z,4.72
2023-02-01T23:01:46.664Z,7.50
2023-02-01T23:04:16.898Z,7.18
2023-02-01T23:06:46.110Z,7.10
2023-02-01T23:09:17.186Z,9.77
2023-02-01T23:11:46.476Z,17.70
2023-02-01T23:14:16.141Z,12.15
2023-02-01T23:16:45.909Z,9.48
2023-02-01T23:19:16.137Z,8.02
2023-02-01T23:21:45.624Z,5.93
2023-02-01T23:24:14.394Z,8.35
2023-02-01T23:26:43.285Z,8.02
2023-02-01T23:29:18.682Z,9.45
2023-02-01T23:31:47.808Z,9.13
2023-02-01T23:34:18.026Z,7.47
2023-02-01T23:36:46.806Z,8.90
2023-02-01T23:39:15.601Z,10.90
2023-02-01T23:41:44.427Z,9.23
2023-02-01T23:44:31.972Z,10.50
2023-02-01T23:47:01.986Z,10.45
2023-02-01T23:49:32.115Z,6.82
2023-02-01T23:52:00.931Z,5.57
2023-02-01T23:54:29.758Z,6.63
2023-02-01T23:56:58.880Z,6.18
2023-02-01T23:59:27.863Z,7.30
